sensor_id;sensor_type;location;lat;lon;timestamp;pressure;altitude;pressure_sealevel;temperature;humidity
62708;BME280;48769;51.624;5.886;2023-06-10T00:00:38;101240.22;;;22.47;58.68
62708;BME280;48769;51.624;5.886;2023-06-10T00:03:06;101236.13;;;22.43;58.65
62708;BME280;48769;51.624;5.886;2023-06-10T00:05:31;101237.41;;;22.39;58.44
62708;BME280;48769;51.624;5.886;2023-06-10T00:07:57;101244.78;;;22.37;59.58
62708;BME280;48769;51.624;5.886;2023-06-10T00:10:23;101242.69;;;22.31;60.07
62708;BME280;48769;51.624;5.886;2023-06-10T00:12:49;101248.50;;;22.26;60.33
62708;BME280;48769;51.624;5.886;2023-06-10T00:15:16;101236.19;;;22.24;60.13
62708;BME280;48769;51.624;5.886;2023-06-10T00:17:42;101237.44;;;22.20;61.14
62708;BME280;48769;51.624;5.886;2023-06-10T00:20:09;101243.16;;;22.16;61.54
62708;BME280;48769;51.624;5.886;2023-06-10T00:22:37;101230.91;;;22.12;60.46
62708;BME280;48769;51.624;5.886;2023-06-10T00:25:04;101238.59;;;22.07;60.95
62708;BME280;48769;51.624;5.886;2023-06-10T00:27:30;101235.34;;;22.04;61.02
62708;BME280;48769;51.624;5.886;2023-06-10T00:30:03;101248.22;;;22.00;62.05
62708;BME280;48769;51.624;5.886;2023-06-10T00:32:32;101246.69;;;21.98;62.28
62708;BME280;48769;51.624;5.886;2023-06-10T00:34:57;101248.09;;;21.92;62.71
62708;BME280;48769;51.624;5.886;2023-06-10T00:37:22;101253.47;;;21.92;63.33
62708;BME280;48769;51.624;5.886;2023-06-10T00:39:48;101255.31;;;21.91;63.33
62708;BME280;48769;51.624;5.886;2023-06-10T00:42:13;101255.16;;;21.93;62.32
62708;BME280;48769;51.624;5.886;2023-06-10T00:44:38;101248.94;;;21.92;61.62
62708;BME280;48769;51.624;5.886;2023-06-10T00:47:05;101258.13;;;21.90;62.40
62708;BME280;48769;51.624;5.886;2023-06-10T00:49:31;101254.75;;;21.88;62.74
62708;BME280;48769;51.624;5.886;2023-06-10T00:51:56;101255.88;;;21.85;62.51
62708;BME280;48769;51.624;5.886;2023-06-10T00:54:22;101257.00;;;21.83;63.56
62708;BME280;48769;51.624;5.886;2023-06-10T00:56:47;101267.06;;;21.81;64.27
62708;BME280;48769;51.624;5.886;2023-06-10T00:59:13;101263.09;;;21.75;65.10
62708;BME280;48769;51.624;5.886;2023-06-10T01:01:40;101267.91;;;21.72;64.65
62708;BME280;48769;51.624;5.886;2023-06-10T01:04:06;101266.06;;;21.72;64.20
62708;BME280;48769;51.624;5.886;2023-06-10T01:06:47;101268.19;;;21.68;64.50
62708;BME280;48769;51.624;5.886;2023-06-10T01:09:45;101261.25;;;21.66;63.90
62708;BME280;48769;51.624;5.886;2023-06-10T01:15:18;101265.50;;;21.59;64.12
62708;BME280;48769;51.624;5.886;2023-06-10T01:20:19;101269.16;;;21.48;64.86
62708;BME280;48769;51.624;5.886;2023-06-10T01:22:44;101269.47;;;21.45;65.25
62708;BME280;48769;51.624;5.886;2023-06-10T01:25:10;101266.78;;;21.45;65.35
62708;BME280;48769;51.624;5.886;2023-06-10T01:27:38;101278.75;;;21.41;65.07
62708;BME280;48769;51.624;5.886;2023-06-10T01:30:13;101266.84;;;21.34;65.23
62708;BME280;48769;51.624;5.886;2023-06-10T01:32:45;101269.38;;;21.26;65.79
62708;BME280;48769;51.624;5.886;2023-06-10T01:35:11;101266.97;;;21.22;66.77
62708;BME280;48769;51.624;5.886;2023-06-10T01:37:42;101271.63;;;21.20;66.66
62708;BME280;48769;51.624;5.886;2023-06-10T01:40:11;101275.59;;;21.16;67.05
62708;BME280;48769;51.624;5.886;2023-06-10T01:42:37;101272.31;;;21.13;67.60
62708;BME280;48769;51.624;5.886;2023-06-10T01:45:03;101274.44;;;21.09;67.65
62708;BME280;48769;51.624;5.886;2023-06-10T01:47:28;101273.00;;;21.05;68.17
62708;BME280;48769;51.624;5.886;2023-06-10T01:49:54;101271.56;;;21.01;68.08
62708;BME280;48769;51.624;5.886;2023-06-10T01:52:19;101263.78;;;20.98;68.56
62708;BME280;48769;51.624;5.886;2023-06-10T01:54:44;101266.72;;;20.95;68.61
62708;BME280;48769;51.624;5.886;2023-06-10T01:57:10;101266.88;;;20.93;69.29
62708;BME280;48769;51.624;5.886;2023-06-10T01:59:35;101273.09;;;20.94;68.98
62708;BME280;48769;51.624;5.886;2023-06-10T02:02:03;101275.06;;;20.92;68.96
62708;BME280;48769;51.624;5.886;2023-06-10T02:04:28;101276.06;;;20.91;69.34
62708;BME280;48769;51.624;5.886;2023-06-10T02:06:54;101274.38;;;20.90;69.77
62708;BME280;48769;51.624;5.886;2023-06-10T02:09:20;101273.63;;;20.88;69.63
62708;BME280;48769;51.624;5.886;2023-06-10T02:11:46;101272.06;;;20.85;70.18
62708;BME280;48769;51.624;5.886;2023-06-10T02:14:11;101279.69;;;20.80;70.07
62708;BME280;48769;51.624;5.886;2023-06-10T02:16:36;101275.03;;;20.82;70.32
62708;BME280;48769;51.624;5.886;2023-06-10T02:19:01;101276.41;;;20.76;70.79
62708;BME280;48769;51.624;5.886;2023-06-10T02:21:28;101285.03;;;20.70;71.22
62708;BME280;48769;51.624;5.886;2023-06-10T02:23:53;101280.88;;;20.66;71.21
62708;BME280;48769;51.624;5.886;2023-06-10T02:26:18;101284.56;;;20.65;71.46
62708;BME280;48769;51.624;5.886;2023-06-10T02:28:45;101287.50;;;20.62;71.64
62708;BME280;48769;51.624;5.886;2023-06-10T02:31:10;101292.31;;;20.59;71.82
62708;BME280;48769;51.624;5.886;2023-06-10T02:33:36;101288.19;;;20.54;72.25
62708;BME280;48769;51.624;5.886;2023-06-10T02:36:05;101289.69;;;20.47;72.78
62708;BME280;48769;51.624;5.886;2023-06-10T02:38:31;101291.75;;;20.44;72.66
62708;BME280;48769;51.624;5.886;2023-06-10T02:40:56;101287.63;;;20.40;73.19
62708;BME280;48769;51.624;5.886;2023-06-10T02:43:21;101277.16;;;20.37;72.99
62708;BME280;48769;51.624;5.886;2023-06-10T02:45:47;101287.47;;;20.31;73.46
62708;BME280;48769;51.624;5.886;2023-06-10T02:48:12;101297.72;;;20.26;74.32
62708;BME280;48769;51.624;5.886;2023-06-10T02:50:37;101295.88;;;20.27;73.62
62708;BME280;48769;51.624;5.886;2023-06-10T02:53:05;101294.31;;;20.24;74.19
62708;BME280;48769;51.624;5.886;2023-06-10T02:55:30;101294.56;;;20.21;74.66
62708;BME280;48769;51.624;5.886;2023-06-10T02:57:55;101294.84;;;20.18;74.73
62708;BME280;48769;51.624;5.886;2023-06-10T03:00:21;101294.84;;;20.18;74.87
62708;BME280;48769;51.624;5.886;2023-06-10T03:02:46;101291.19;;;20.19;74.69
62708;BME280;48769;51.624;5.886;2023-06-10T03:05:12;101294.13;;;20.16;74.74
62708;BME280;48769;51.624;5.886;2023-06-10T03:07:41;101293.66;;;20.11;75.63
62708;BME280;48769;51.624;5.886;2023-06-10T03:10:07;101300.16;;;20.08;75.38
62708;BME280;48769;51.624;5.886;2023-06-10T03:12:32;101303.19;;;20.04;76.19
62708;BME280;48769;51.624;5.886;2023-06-10T03:14:57;101301.75;;;20.00;75.81
62708;BME280;48769;51.624;5.886;2023-06-10T03:17:23;101302.50;;;20.02;75.84
62708;BME280;48769;51.624;5.886;2023-06-10T03:19:48;101297.50;;;19.97;75.82
62708;BME280;48769;51.624;5.886;2023-06-10T03:22:15;101304.22;;;19.92;76.26
62708;BME280;48769;51.624;5.886;2023-06-10T03:24:41;101309.72;;;19.90;76.33
62708;BME280;48769;51.624;5.886;2023-06-10T03:27:09;101308.41;;;19.84;76.83
62708;BME280;48769;51.624;5.886;2023-06-10T03:29:39;101314.16;;;19.80;76.95
62708;BME280;48769;51.624;5.886;2023-06-10T03:32:05;101307.06;;;19.79;77.11
62708;BME280;48769;51.624;5.886;2023-06-10T03:34:31;101314.50;;;19.75;77.23
62708;BME280;48769;51.624;5.886;2023-06-10T03:36:56;101311.38;;;19.70;77.24
62708;BME280;48769;51.624;5.886;2023-06-10T03:39:22;101314.78;;;19.72;77.13
62708;BME280;48769;51.624;5.886;2023-06-10T03:41:49;101320.66;;;19.66;77.12
62708;BME280;48769;51.624;5.886;2023-06-10T03:44:14;101322.22;;;19.69;77.13
62708;BME280;48769;51.624;5.886;2023-06-10T03:46:40;101326.03;;;19.66;77.65
62708;BME280;48769;51.624;5.886;2023-06-10T03:49:05;101324.31;;;19.65;77.24
62708;BME280;48769;51.624;5.886;2023-06-10T03:51:30;101325.38;;;19.62;77.11
62708;BME280;48769;51.624;5.886;2023-06-10T03:53:56;101324.53;;;19.62;77.34
62708;BME280;48769;51.624;5.886;2023-06-10T03:56:21;101326.25;;;19.63;77.61
62708;BME280;48769;51.624;5.886;2023-06-10T03:58:46;101326.25;;;19.63;77.61
62708;BME280;48769;51.624;5.886;2023-06-10T04:01:12;101329.88;;;19.62;76.90
62708;BME280;48769;51.624;5.886;2023-06-10T04:03:38;101331.59;;;19.63;76.57
62708;BME280;48769;51.624;5.886;2023-06-10T04:06:05;101322.59;;;19.64;76.26
62708;BME280;48769;51.624;5.886;2023-06-10T04:08:30;101323.44;;;19.65;76.13
62708;BME280;48769;51.624;5.886;2023-06-10T04:10:57;101330.41;;;19.67;76.38
62708;BME280;48769;51.624;5.886;2023-06-10T04:13:23;101332.47;;;19.64;75.80
62708;BME280;48769;51.624;5.886;2023-06-10T04:15:48;101336.75;;;19.66;76.64
62708;BME280;48769;51.624;5.886;2023-06-10T04:18:13;101333.06;;;19.67;76.18
62708;BME280;48769;51.624;5.886;2023-06-10T04:20:39;101336.59;;;19.68;75.76
62708;BME280;48769;51.624;5.886;2023-06-10T04:23:04;101340.97;;;19.69;75.78
62708;BME280;48769;51.624;5.886;2023-06-10T04:25:30;101340.97;;;19.69;75.26
62708;BME280;48769;51.624;5.886;2023-06-10T04:27:55;101338.91;;;19.72;74.90
62708;BME280;48769;51.624;5.886;2023-06-10T04:30:20;101339.38;;;19.77;74.90
62708;BME280;48769;51.624;5.886;2023-06-10T04:32:47;101345.34;;;19.81;75.24
62708;BME280;48769;51.624;5.886;2023-06-10T04:35:12;101340.13;;;19.79;74.84
62708;BME280;48769;51.624;5.886;2023-06-10T04:37:39;101343.16;;;19.75;74.50
62708;BME280;48769;51.624;5.886;2023-06-10T04:40:05;101345.00;;;19.74;74.35
62708;BME280;48769;51.624;5.886;2023-06-10T04:42:31;101346.69;;;19.75;74.08
62708;BME280;48769;51.624;5.886;2023-06-10T04:44:56;101340.22;;;19.78;74.20
62708;BME280;48769;51.624;5.886;2023-06-10T04:47:26;101344.84;;;19.87;74.69
62708;BME280;48769;51.624;5.886;2023-06-10T04:49:52;101342.50;;;19.94;73.56
62708;BME280;48769;51.624;5.886;2023-06-10T04:52:17;101346.63;;;19.98;73.30
62708;BME280;48769;51.624;5.886;2023-06-10T04:54:43;101342.72;;;20.02;73.43
62708;BME280;48769;51.624;5.886;2023-06-10T04:57:08;101345.09;;;20.16;72.96
62708;BME280;48769;51.624;5.886;2023-06-10T04:59:33;101340.06;;;20.44;72.08
62708;BME280;48769;51.624;5.886;2023-06-10T05:02:03;101335.09;;;20.81;71.12
62708;BME280;48769;51.624;5.886;2023-06-10T05:04:28;101329.75;;;21.21;69.07
62708;BME280;48769;51.624;5.886;2023-06-10T05:06:54;101335.38;;;21.49;67.42
62708;BME280;48769;51.624;5.886;2023-06-10T05:09:20;101331.13;;;21.46;67.29
62708;BME280;48769;51.624;5.886;2023-06-10T05:11:45;101340.78;;;21.59;67.21
62708;BME280;48769;51.624;5.886;2023-06-10T05:14:11;101335.00;;;22.02;66.88
62708;BME280;48769;51.624;5.886;2023-06-10T05:16:36;101332.50;;;22.30;64.46
62708;BME280;48769;51.624;5.886;2023-06-10T05:19:02;101333.44;;;22.48;64.18
62708;BME280;48769;51.624;5.886;2023-06-10T05:21:28;101334.22;;;22.78;63.17
62708;BME280;48769;51.624;5.886;2023-06-10T05:23:53;101331.91;;;22.93;61.93
62708;BME280;48769;51.624;5.886;2023-06-10T05:26:19;101332.44;;;23.06;61.27
62708;BME280;48769;51.624;5.886;2023-06-10T05:28:45;101332.66;;;23.22;60.41
62708;BME280;48769;51.624;5.886;2023-06-10T05:31:10;101331.22;;;23.28;60.00
62708;BME280;48769;51.624;5.886;2023-06-10T05:33:35;101324.81;;;23.56;59.65
62708;BME280;48769;51.624;5.886;2023-06-10T05:36:00;101327.56;;;23.74;58.09
62708;BME280;48769;51.624;5.886;2023-06-10T05:38:26;101321.31;;;23.74;57.62
62708;BME280;48769;51.624;5.886;2023-06-10T05:40:51;101320.84;;;23.96;57.28
62708;BME280;48769;51.624;5.886;2023-06-10T05:43:16;101321.44;;;24.26;56.89
62708;BME280;48769;51.624;5.886;2023-06-10T05:45:42;101322.66;;;24.49;55.91
62708;BME280;48769;51.624;5.886;2023-06-10T05:48:07;101318.84;;;24.86;54.31
62708;BME280;48769;51.624;5.886;2023-06-10T05:50:34;101315.59;;;24.83;54.07
62708;BME280;48769;51.624;5.886;2023-06-10T05:53:03;101318.41;;;24.73;53.25
62708;BME280;48769;51.624;5.886;2023-06-10T05:55:28;101325.63;;;24.90;53.94
62708;BME280;48769;51.624;5.886;2023-06-10T05:58:00;101331.16;;;25.15;53.71
62708;BME280;48769;51.624;5.886;2023-06-10T06:00:25;101331.19;;;25.23;52.65
62708;BME280;48769;51.624;5.886;2023-06-10T06:02:52;101324.38;;;25.53;51.96
62708;BME280;48769;51.624;5.886;2023-06-10T06:05:17;101317.59;;;25.49;51.72
62708;BME280;48769;51.624;5.886;2023-06-10T06:07:43;101320.84;;;25.69;51.13
62708;BME280;48769;51.624;5.886;2023-06-10T06:10:08;101321.41;;;25.81;50.17
62708;BME280;48769;51.624;5.886;2023-06-10T06:12:34;101322.44;;;25.96;50.07
62708;BME280;48769;51.624;5.886;2023-06-10T06:14:59;101316.00;;;26.22;49.49
62708;BME280;48769;51.624;5.886;2023-06-10T06:17:24;101319.91;;;26.03;49.00
62708;BME280;48769;51.624;5.886;2023-06-10T06:19:49;101314.66;;;26.09;49.11
62708;BME280;48769;51.624;5.886;2023-06-10T06:22:15;101316.00;;;26.05;48.98
62708;BME280;48769;51.624;5.886;2023-06-10T06:24:40;101310.59;;;26.22;48.91
62708;BME280;48769;51.624;5.886;2023-06-10T06:27:05;101314.97;;;26.72;48.02
62708;BME280;48769;51.624;5.886;2023-06-10T06:29:31;101309.94;;;27.00;46.75
62708;BME280;48769;51.624;5.886;2023-06-10T06:31:56;101313.97;;;27.12;46.53
62708;BME280;48769;51.624;5.886;2023-06-10T06:34:22;101313.25;;;27.26;45.72
62708;BME280;48769;51.624;5.886;2023-06-10T06:36:47;101313.97;;;27.52;45.40
62708;BME280;48769;51.624;5.886;2023-06-10T06:39:12;101323.41;;;27.64;45.72
62708;BME280;48769;51.624;5.886;2023-06-10T06:41:37;101320.84;;;27.62;44.81
62708;BME280;48769;51.624;5.886;2023-06-10T06:44:03;101308.84;;;27.88;43.68
62708;BME280;48769;51.624;5.886;2023-06-10T06:46:28;101319.31;;;28.14;44.37
62708;BME280;48769;51.624;5.886;2023-06-10T06:48:53;101313.34;;;28.56;43.30
62708;BME280;48769;51.624;5.886;2023-06-10T06:51:19;101312.03;;;28.52;42.38
62708;BME280;48769;51.624;5.886;2023-06-10T06:53:44;101319.25;;;28.60;42.31
62708;BME280;48769;51.624;5.886;2023-06-10T06:56:11;101316.41;;;29.06;42.53
62708;BME280;48769;51.624;5.886;2023-06-10T06:58:37;101316.19;;;29.07;41.60
62708;BME280;48769;51.624;5.886;2023-06-10T07:01:02;101318.66;;;29.02;41.72
62708;BME280;48769;51.624;5.886;2023-06-10T07:03:28;101311.22;;;29.47;40.29
62708;BME280;48769;51.624;5.886;2023-06-10T07:05:53;101316.53;;;29.70;41.21
62708;BME280;48769;51.624;5.886;2023-06-10T07:08:18;101311.94;;;30.14;38.96
62708;BME280;48769;51.624;5.886;2023-06-10T07:10:44;101313.13;;;30.26;39.31
62708;BME280;48769;51.624;5.886;2023-06-10T07:13:09;101314.78;;;30.48;39.84
62708;BME280;48769;51.624;5.886;2023-06-10T07:15:35;101314.03;;;30.68;38.17
62708;BME280;48769;51.624;5.886;2023-06-10T07:18:00;101308.03;;;31.14;37.88
62708;BME280;48769;51.624;5.886;2023-06-10T07:20:26;101317.66;;;31.58;36.93
62708;BME280;48769;51.624;5.886;2023-06-10T07:22:51;101322.91;;;31.46;36.04
62708;BME280;48769;51.624;5.886;2023-06-10T07:25:16;101323.81;;;31.25;35.96
62708;BME280;48769;51.624;5.886;2023-06-10T07:27:41;101319.81;;;31.14;35.93
62708;BME280;48769;51.624;5.886;2023-06-10T07:30:07;101319.53;;;31.44;35.27
62708;BME280;48769;51.624;5.886;2023-06-10T07:32:36;101334.69;;;31.60;36.55
62708;BME280;48769;51.624;5.886;2023-06-10T07:35:01;101318.16;;;31.95;34.13
62708;BME280;48769;51.624;5.886;2023-06-10T07:37:26;101317.25;;;31.13;34.75
62708;BME280;48769;51.624;5.886;2023-06-10T07:39:52;101325.25;;;31.56;33.93
62708;BME280;48769;51.624;5.886;2023-06-10T07:42:18;101325.38;;;31.34;34.04
62708;BME280;48769;51.624;5.886;2023-06-10T07:44:43;101328.06;;;32.02;35.24
62708;BME280;48769;51.624;5.886;2023-06-10T07:47:09;101324.50;;;32.15;34.58
62708;BME280;48769;51.624;5.886;2023-06-10T07:49:34;101331.00;;;32.21;34.57
62708;BME280;48769;51.624;5.886;2023-06-10T07:51:59;101324.59;;;31.54;34.57
62708;BME280;48769;51.624;5.886;2023-06-10T07:54:24;101325.91;;;30.54;35.30
62708;BME280;48769;51.624;5.886;2023-06-10T07:56:50;101332.59;;;30.01;36.91
62708;BME280;48769;51.624;5.886;2023-06-10T07:59:18;101331.47;;;29.59;37.40
62708;BME280;48769;51.624;5.886;2023-06-10T08:01:43;101335.03;;;29.39;38.06
62708;BME280;48769;51.624;5.886;2023-06-10T08:04:08;101335.31;;;29.29;38.85
62708;BME280;48769;51.624;5.886;2023-06-10T08:06:34;101337.00;;;29.30;38.54
62708;BME280;48769;51.624;5.886;2023-06-10T08:08:59;101332.84;;;29.34;39.23
62708;BME280;48769;51.624;5.886;2023-06-10T08:11:25;101340.88;;;29.06;38.52
62708;BME280;48769;51.624;5.886;2023-06-10T08:13:53;101332.78;;;28.98;39.28
62708;BME280;48769;51.624;5.886;2023-06-10T08:16:18;101334.31;;;29.00;40.53
62708;BME280;48769;51.624;5.886;2023-06-10T08:18:44;101337.38;;;28.97;39.66
62708;BME280;48769;51.624;5.886;2023-06-10T08:21:09;101331.47;;;28.94;39.42
62708;BME280;48769;51.624;5.886;2023-06-10T08:23:34;101337.59;;;29.10;40.82
62708;BME280;48769;51.624;5.886;2023-06-10T08:26:00;101334.56;;;29.35;40.84
62708;BME280;48769;51.624;5.886;2023-06-10T08:28:25;101332.97;;;29.26;39.48
62708;BME280;48769;51.624;5.886;2023-06-10T08:30:50;101341.25;;;29.03;40.88
62708;BME280;48769;51.624;5.886;2023-06-10T08:33:16;101332.59;;;28.99;39.67
62708;BME280;48769;51.624;5.886;2023-06-10T08:35:41;101332.53;;;29.07;40.81
62708;BME280;48769;51.624;5.886;2023-06-10T08:38:06;101336.16;;;28.70;40.83
62708;BME280;48769;51.624;5.886;2023-06-10T08:40:33;101341.59;;;28.85;40.40
62708;BME280;48769;51.624;5.886;2023-06-10T08:45:30;101325.41;;;29.06;40.00
62708;BME280;48769;51.624;5.886;2023-06-10T08:48:02;101332.53;;;29.22;40.23
62708;BME280;48769;51.624;5.886;2023-06-10T08:50:35;101328.00;;;29.29;40.36
62708;BME280;48769;51.624;5.886;2023-06-10T08:53:02;101334.00;;;29.25;40.75
62708;BME280;48769;51.624;5.886;2023-06-10T08:55:32;101333.16;;;29.24;40.54
62708;BME280;48769;51.624;5.886;2023-06-10T08:58:01;101337.53;;;29.40;39.34
62708;BME280;48769;51.624;5.886;2023-06-10T09:00:28;101343.28;;;29.30;39.54
62708;BME280;48769;51.624;5.886;2023-06-10T09:02:55;101342.91;;;29.33;41.58
62708;BME280;48769;51.624;5.886;2023-06-10T09:05:21;101342.06;;;29.33;40.49
62708;BME280;48769;51.624;5.886;2023-06-10T09:07:48;101336.13;;;29.44;40.73
62708;BME280;48769;51.624;5.886;2023-06-10T09:10:13;101333.78;;;29.41;40.24
62708;BME280;48769;51.624;5.886;2023-06-10T09:12:39;101337.09;;;29.37;41.16
62708;BME280;48769;51.624;5.886;2023-06-10T09:15:05;101335.28;;;29.44;41.26
62708;BME280;48769;51.624;5.886;2023-06-10T09:17:31;101327.56;;;29.47;39.13
62708;BME280;48769;51.624;5.886;2023-06-10T09:19:57;101325.44;;;29.43;40.15
62708;BME280;48769;51.624;5.886;2023-06-10T09:22:23;101321.22;;;29.40;40.32
62708;BME280;48769;51.624;5.886;2023-06-10T09:24:49;101327.25;;;29.57;41.25
62708;BME280;48769;51.624;5.886;2023-06-10T09:27:14;101321.28;;;29.62;39.44
62708;BME280;48769;51.624;5.886;2023-06-10T09:29:52;101322.19;;;29.69;40.02
62708;BME280;48769;51.624;5.886;2023-06-10T09:32:19;101322.88;;;29.56;39.40
62708;BME280;48769;51.624;5.886;2023-06-10T09:34:45;101314.56;;;29.43;40.00
62708;BME280;48769;51.624;5.886;2023-06-10T09:37:11;101321.75;;;29.50;41.31
62708;BME280;48769;51.624;5.886;2023-06-10T09:39:41;101318.38;;;29.48;40.37
62708;BME280;48769;51.624;5.886;2023-06-10T09:42:17;101314.84;;;29.48;39.92
62708;BME280;48769;51.624;5.886;2023-06-10T09:44:49;101313.88;;;29.41;39.32
62708;BME280;48769;51.624;5.886;2023-06-10T09:47:22;101306.56;;;29.41;39.63
62708;BME280;48769;51.624;5.886;2023-06-10T09:49:48;101311.22;;;29.47;39.62
62708;BME280;48769;51.624;5.886;2023-06-10T09:52:21;101311.50;;;29.52;38.47
62708;BME280;48769;51.624;5.886;2023-06-10T09:54:46;101306.34;;;29.57;38.66
62708;BME280;48769;51.624;5.886;2023-06-10T09:57:12;101313.25;;;29.75;38.87
62708;BME280;48769;51.624;5.886;2023-06-10T09:59:38;101308.38;;;29.92;38.64
62708;BME280;48769;51.624;5.886;2023-06-10T10:02:03;101310.13;;;29.99;39.43
62708;BME280;48769;51.624;5.886;2023-06-10T10:04:29;101311.84;;;30.00;38.13
62708;BME280;48769;51.624;5.886;2023-06-10T10:06:55;101296.91;;;29.96;38.01
62708;BME280;48769;51.624;5.886;2023-06-10T10:09:20;101305.78;;;30.05;37.47
62708;BME280;48769;51.624;5.886;2023-06-10T10:11:45;101307.34;;;30.14;38.91
62708;BME280;48769;51.624;5.886;2023-06-10T10:14:13;101300.66;;;30.17;37.91
62708;BME280;48769;51.624;5.886;2023-06-10T10:16:40;101297.72;;;30.18;37.66
62708;BME280;48769;51.624;5.886;2023-06-10T10:19:19;101298.19;;;30.22;37.54
62708;BME280;48769;51.624;5.886;2023-06-10T10:22:01;101303.66;;;30.22;38.41
62708;BME280;48769;51.624;5.886;2023-06-10T10:24:49;101302.28;;;30.33;37.72
62708;BME280;48769;51.624;5.886;2023-06-10T10:27:21;101299.59;;;30.39;36.52
62708;BME280;48769;51.624;5.886;2023-06-10T10:29:52;101294.06;;;30.26;36.96
62708;BME280;48769;51.624;5.886;2023-06-10T10:32:21;101293.31;;;30.39;36.53
62708;BME280;48769;51.624;5.886;2023-06-10T10:35:17;101295.47;;;30.50;37.47
62708;BME280;48769;51.624;5.886;2023-06-10T10:37:44;101291.25;;;30.47;36.07
62708;BME280;48769;51.624;5.886;2023-06-10T10:40:10;101285.81;;;30.47;35.75
62708;BME280;48769;51.624;5.886;2023-06-10T10:42:37;101283.47;;;30.44;36.34
62708;BME280;48769;51.624;5.886;2023-06-10T10:45:03;101283.72;;;30.49;36.54
62708;BME280;48769;51.624;5.886;2023-06-10T10:47:30;101284.63;;;30.57;36.15
62708;BME280;48769;51.624;5.886;2023-06-10T10:49:56;101283.25;;;30.39;37.01
62708;BME280;48769;51.624;5.886;2023-06-10T10:52:27;101284.97;;;30.47;37.09
62708;BME280;48769;51.624;5.886;2023-06-10T10:54:53;101292.13;;;30.55;36.82
62708;BME280;48769;51.624;5.886;2023-06-10T10:57:21;101284.66;;;30.63;37.12
62708;BME280;48769;51.624;5.886;2023-06-10T10:59:57;101275.25;;;30.66;35.98
62708;BME280;48769;51.624;5.886;2023-06-10T11:02:45;101270.88;;;30.71;35.69
62708;BME280;48769;51.624;5.886;2023-06-10T11:05:14;101271.56;;;30.80;34.73
62708;BME280;48769;51.624;5.886;2023-06-10T11:07:40;101260.22;;;30.77;35.22
62708;BME280;48769;51.624;5.886;2023-06-10T11:10:06;101257.81;;;30.67;34.98
62708;BME280;48769;51.624;5.886;2023-06-10T11:12:50;101268.09;;;30.65;34.59
62708;BME280;48769;51.624;5.886;2023-06-10T11:15:24;101260.94;;;30.64;35.59
62708;BME280;48769;51.624;5.886;2023-06-10T11:18:12;101267.81;;;30.81;35.44
62708;BME280;48769;51.624;5.886;2023-06-10T11:20:43;101265.69;;;30.83;35.73
62708;BME280;48769;51.624;5.886;2023-06-10T11:23:09;101260.94;;;30.92;35.57
62708;BME280;48769;51.624;5.886;2023-06-10T11:25:41;101246.94;;;30.73;34.26
62708;BME280;48769;51.624;5.886;2023-06-10T11:28:19;101252.47;;;30.80;34.29
62708;BME280;48769;51.624;5.886;2023-06-10T11:30:45;101255.03;;;30.88;33.93
62708;BME280;48769;51.624;5.886;2023-06-10T11:33:17;101245.16;;;30.87;34.22
62708;BME280;48769;51.624;5.886;2023-06-10T11:35:43;101247.47;;;30.90;34.09
62708;BME280;48769;51.624;5.886;2023-06-10T11:38:09;101243.97;;;31.03;34.45
62708;BME280;48769;51.624;5.886;2023-06-10T11:40:34;101236.44;;;31.12;33.46
62708;BME280;48769;51.624;5.886;2023-06-10T11:43:00;101246.31;;;31.13;32.59
62708;BME280;48769;51.624;5.886;2023-06-10T11:45:26;101234.47;;;30.92;33.48
62708;BME280;48769;51.624;5.886;2023-06-10T11:47:58;101243.06;;;30.89;32.85
62708;BME280;48769;51.624;5.886;2023-06-10T11:50:32;101242.25;;;30.95;33.38
62708;BME280;48769;51.624;5.886;2023-06-10T11:52:58;101236.66;;;31.10;33.14
62708;BME280;48769;51.624;5.886;2023-06-10T11:55:26;101224.91;;;31.23;32.49
62708;BME280;48769;51.624;5.886;2023-06-10T11:57:51;101229.09;;;31.19;32.83
62708;BME280;48769;51.624;5.886;2023-06-10T12:00:23;101221.97;;;31.18;33.02
62708;BME280;48769;51.624;5.886;2023-06-10T12:02:56;101227.28;;;31.33;32.72
62708;BME280;48769;51.624;5.886;2023-06-10T12:05:22;101207.72;;;31.29;32.36
62708;BME280;48769;51.624;5.886;2023-06-10T12:07:48;101220.94;;;31.32;32.61
62708;BME280;48769;51.624;5.886;2023-06-10T12:10:13;101214.69;;;31.38;32.32
62708;BME280;48769;51.624;5.886;2023-06-10T12:12:38;101215.34;;;31.40;33.53
62708;BME280;48769;51.624;5.886;2023-06-10T12:15:04;101210.94;;;31.39;31.48
62708;BME280;48769;51.624;5.886;2023-06-10T12:20:07;101206.53;;;31.52;32.34
62708;BME280;48769;51.624;5.886;2023-06-10T12:22:43;101206.25;;;31.27;32.57
62708;BME280;48769;51.624;5.886;2023-06-10T12:25:09;101198.25;;;31.25;32.33
62708;BME280;48769;51.624;5.886;2023-06-10T12:27:36;101205.81;;;31.23;33.25
62708;BME280;48769;51.624;5.886;2023-06-10T12:30:04;101205.25;;;31.41;32.28
62708;BME280;48769;51.624;5.886;2023-06-10T12:32:40;101205.91;;;31.56;33.26
62708;BME280;48769;51.624;5.886;2023-06-10T12:35:07;101202.75;;;31.59;32.40
62708;BME280;48769;51.624;5.886;2023-06-10T12:37:32;101204.84;;;31.77;31.93
62708;BME280;48769;51.624;5.886;2023-06-10T12:40:02;101200.66;;;31.81;30.71
62708;BME280;48769;51.624;5.886;2023-06-10T12:42:31;101199.66;;;31.89;31.45
62708;BME280;48769;51.624;5.886;2023-06-10T12:44:59;101190.19;;;31.92;30.83
62708;BME280;48769;51.624;5.886;2023-06-10T12:50:00;101185.13;;;31.75;29.93
62708;BME280;48769;51.624;5.886;2023-06-10T12:52:26;101192.25;;;31.63;30.97
62708;BME280;48769;51.624;5.886;2023-06-10T12:54:51;101198.97;;;31.80;31.27
62708;BME280;48769;51.624;5.886;2023-06-10T12:57:17;101201.72;;;31.94;31.81
62708;BME280;48769;51.624;5.886;2023-06-10T12:59:42;101203.41;;;32.08;31.35
62708;BME280;48769;51.624;5.886;2023-06-10T13:02:15;101191.19;;;32.17;30.53